Time;durP1;ratioP1;P1;durP2;ratioP2;P2;SDS_P1;SDS_P2;PMS_P1;PMS_P2;Temp;Humidity;BMP_temperature;BMP_pressure;BME280_temperature;BME280_humidity;BME280_pressure;Samples;Min_cycle;Max_cycle;Signal;HPM_P1;HPM_P2
2021/05/01 00:00:14;;;;;;;3.25;1.20;;;24.50;38.70;;;;;;5078582;28;20624;-57
2021/05/01 00:02:39;;;;;;;3.22;1.30;;;24.50;38.70;;;;;;5068825;28;20618;-58
2021/05/01 00:05:06;;;;;;;3.03;1.40;;;24.50;38.60;;;;;;5082560;28;20412;-58
2021/05/01 00:07:31;;;;;;;3.13;1.20;;;24.50;38.60;;;;;;5084764;28;20020;-55
2021/05/01 00:09:57;;;;;;;3.63;1.50;;;24.50;38.70;;;;;;5084198;28;20043;-55
2021/05/01 00:12:22;;;;;;;3.92;1.40;;;24.50;38.70;;;;;;5083867;28;20103;-55
2021/05/01 00:14:48;;;;;;;3.38;1.20;;;24.50;38.70;;;;;;5072999;28;20061;-58
2021/05/01 00:17:13;;;;;;;2.42;1.20;;;24.50;38.70;;;;;;5071582;28;20270;-58
2021/05/01 00:19:39;;;;;;;4.57;1.33;;;24.40;38.60;;;;;;5082926;28;20062;-59
2021/05/01 00:22:05;;;;;;;3.15;1.38;;;24.50;38.70;;;;;;5084457;28;20085;-55
2021/05/01 00:24:30;;;;;;;2.60;1.50;;;24.50;38.70;;;;;;5079015;28;20496;-57
2021/05/01 00:26:56;;;;;;;2.92;1.17;;;24.50;38.70;;;;;;5064896;28;20038;-57
2021/05/01 00:29:21;;;;;;;3.03;1.52;;;24.50;38.70;;;;;;5081823;28;20028;-55
2021/05/01 00:31:47;;;;;;;2.60;1.27;;;24.50;38.70;;;;;;5084634;28;20056;-55
2021/05/01 00:34:13;;;;;;;3.17;1.13;;;24.50;38.70;;;;;;5083036;28;20455;-59
2021/05/01 00:36:39;;;;;;;3.47;1.30;;;24.50;38.70;;;;;;5083190;28;20028;-55
2021/05/01 00:39:05;;;;;;;2.95;1.33;;;24.50;38.80;;;;;;5084175;28;20036;-52
2021/05/01 00:41:31;;;;;;;3.58;1.30;;;24.50;38.80;;;;;;5083532;28;20023;-56
2021/05/01 00:43:56;;;;;;;3.40;1.30;;;24.50;38.80;;;;;;5084417;28;20043;-62
2021/05/01 00:46:22;;;;;;;2.15;1.00;;;24.50;38.80;;;;;;5082033;28;20070;-54
2021/05/01 00:48:47;;;;;;;3.67;1.20;;;24.50;38.80;;;;;;5076813;28;20047;-54
2021/05/01 00:51:13;;;;;;;2.50;1.20;;;24.50;38.80;;;;;;5072289;28;20025;-56
2021/05/01 00:53:39;;;;;;;3.95;1.65;;;24.50;38.70;;;;;;5081483;28;20028;-58
2021/05/01 00:56:06;;;;;;;3.17;1.25;;;24.50;38.70;;;;;;5082569;28;20486;-57
2021/05/01 00:58:32;;;;;;;2.00;1.20;;;24.50;38.70;;;;;;5083134;28;20078;-57
2021/05/01 01:03:31;;;;;;;3.15;1.35;;;24.50;38.60;;;;;;5075965;28;20527;-60
2021/05/01 01:05:56;;;;;;;2.20;1.20;;;24.50;38.60;;;;;;5087183;28;20024;-54
2021/05/01 01:08:22;;;;;;;3.60;1.20;;;24.60;38.60;;;;;;5089199;28;20042;-57
2021/05/01 01:10:48;;;;;;;2.22;1.10;;;24.50;38.60;;;;;;5086813;28;20032;-56
2021/05/01 01:13:13;;;;;;;2.60;1.20;;;24.50;38.50;;;;;;5085803;28;20632;-60
2021/05/01 01:15:39;;;;;;;2.17;1.10;;;24.50;38.50;;;;;;5087919;28;20518;-57
2021/05/01 01:18:05;;;;;;;1.77;1.05;;;24.50;38.50;;;;;;5086850;28;20109;-59
2021/05/01 01:20:30;;;;;;;3.45;1.30;;;24.50;38.50;;;;;;5083790;28;21290;-58
2021/05/01 01:22:56;;;;;;;2.78;1.20;;;24.40;38.50;;;;;;5086196;28;20036;-60
2021/05/01 01:25:22;;;;;;;2.20;1.13;;;24.40;38.50;;;;;;5085260;28;20032;-53
2021/05/01 01:27:49;;;;;;;2.28;1.10;;;24.40;38.50;;;;;;5085706;28;20309;-57
2021/05/01 01:30:17;;;;;;;3.63;1.40;;;24.40;38.50;;;;;;5085759;28;20059;-57
2021/05/01 01:32:43;;;;;;;2.93;1.50;;;24.40;38.50;;;;;;5081745;28;20028;-57
2021/05/01 01:35:11;;;;;;;1.83;1.00;;;24.30;38.40;;;;;;5076498;28;20094;-53
2021/05/01 01:37:39;;;;;;;2.10;1.05;;;24.30;38.40;;;;;;5080182;28;20103;-58
2021/05/01 01:40:06;;;;;;;1.92;1.00;;;24.30;38.40;;;;;;5085223;28;20372;-56
2021/05/01 01:42:31;;;;;;;1.63;1.00;;;24.30;38.50;;;;;;5083880;28;20389;-60
2021/05/01 01:44:57;;;;;;;2.33;1.00;;;24.30;38.40;;;;;;5085423;28;20043;-58
2021/05/01 01:47:23;;;;;;;1.77;1.00;;;24.20;38.40;;;;;;5082570;28;20024;-58
2021/05/01 01:49:48;;;;;;;1.73;1.00;;;24.20;38.50;;;;;;5085891;28;20020;-57
2021/05/01 01:52:14;;;;;;;1.48;0.90;;;24.20;38.40;;;;;;5085088;28;20431;-53
2021/05/01 01:54:40;;;;;;;1.52;0.90;;;24.10;38.40;;;;;;5084444;28;20031;-55
2021/05/01 01:57:06;;;;;;;3.10;1.20;;;24.20;38.50;;;;;;5085038;28;20515;-56
2021/05/01 01:59:32;;;;;;;2.17;0.98;;;24.20;38.50;;;;;;5085944;28;20028;-58
2021/05/01 02:01:58;;;;;;;1.58;1.00;;;24.10;38.50;;;;;;5084164;28;20325;-56
2021/05/01 02:04:24;;;;;;;2.38;1.10;;;24.10;38.50;;;;;;5085891;28;20036;-58
2021/05/01 02:06:50;;;;;;;2.03;1.00;;;24.10;38.50;;;;;;5083989;28;20024;-62
2021/05/01 02:09:15;;;;;;;2.53;1.08;;;24.00;38.40;;;;;;5085462;28;20387;-58
2021/05/01 02:11:41;;;;;;;1.83;0.90;;;24.00;38.40;;;;;;5084393;28;20071;-58
2021/05/01 02:14:07;;;;;;;1.58;0.95;;;24.00;38.40;;;;;;5076762;28;20031;-55
2021/05/01 02:16:34;;;;;;;1.40;0.90;;;24.00;38.40;;;;;;5084294;28;20032;-56
2021/05/01 02:19:00;;;;;;;2.03;0.80;;;24.00;38.40;;;;;;5084907;28;20058;-56
2021/05/01 02:21:26;;;;;;;2.00;0.90;;;24.00;38.40;;;;;;5084700;28;20497;-58
2021/05/01 02:23:51;;;;;;;2.22;1.10;;;24.00;38.40;;;;;;5064650;28;20028;-58
2021/05/01 02:26:17;;;;;;;1.40;0.80;;;23.90;38.30;;;;;;5068373;28;20475;-56
2021/05/01 02:28:44;;;;;;;1.38;0.80;;;23.90;38.30;;;;;;5085965;28;20087;-57
2021/05/01 02:31:10;;;;;;;1.75;1.10;;;23.90;38.40;;;;;;5085675;28;20488;-56
2021/05/01 02:33:36;;;;;;;2.92;1.10;;;23.90;38.40;;;;;;5073778;28;20032;-56
2021/05/01 02:36:01;;;;;;;1.55;0.80;;;23.90;38.40;;;;;;5084939;28;20050;-56
2021/05/01 02:38:27;;;;;;;3.55;1.10;;;23.90;38.40;;;;;;5085090;28;20036;-57
2021/05/01 02:40:52;;;;;;;3.33;1.30;;;23.80;38.40;;;;;;5083662;28;20036;-59
2021/05/01 02:43:18;;;;;;;2.28;1.05;;;23.80;38.40;;;;;;5085261;28;20032;-61
2021/05/01 02:45:44;;;;;;;2.42;0.90;;;23.80;38.40;;;;;;5082148;28;20032;-58
2021/05/01 02:48:10;;;;;;;1.35;0.80;;;23.80;38.40;;;;;;5085966;28;20110;-55
2021/05/01 02:50:36;;;;;;;2.75;1.00;;;23.70;38.40;;;;;;5070534;28;20467;-56
2021/05/01 02:53:02;;;;;;;1.92;1.00;;;23.70;38.40;;;;;;5085000;28;20126;-57
2021/05/01 02:55:28;;;;;;;1.75;0.90;;;23.70;38.40;;;;;;5083737;28;20363;-58
2021/05/01 02:57:54;;;;;;;1.75;0.80;;;23.70;38.40;;;;;;5085060;28;20123;-56
2021/05/01 03:00:22;;;;;;;2.05;0.90;;;23.70;38.40;;;;;;5084818;28;20129;-61
2021/05/01 03:02:48;;;;;;;1.50;0.80;;;23.70;38.40;;;;;;5085272;28;20142;-56
2021/05/01 03:05:15;;;;;;;1.38;1.00;;;23.60;38.40;;;;;;5088603;28;20108;-54
2021/05/01 03:07:41;;;;;;;1.85;0.90;;;23.60;38.40;;;;;;5073407;28;20044;-54
2021/05/01 03:10:13;;;;;;;1.58;0.90;;;23.60;38.50;;;;;;5080537;28;20081;-57
2021/05/01 03:12:39;;;;;;;2.15;1.00;;;23.60;38.50;;;;;;5083980;28;20020;-56
2021/05/01 03:15:07;;;;;;;0.85;0.70;;;23.60;38.50;;;;;;5089038;28;20036;-56
2021/05/01 03:17:33;;;;;;;1.33;0.90;;;23.50;38.40;;;;;;5088671;28;20540;-57
2021/05/01 03:19:58;;;;;;;2.22;0.90;;;23.50;38.40;;;;;;5087980;28;20032;-58
2021/05/01 03:22:25;;;;;;;2.15;1.00;;;23.50;38.50;;;;;;5089191;28;20048;-59
2021/05/01 03:24:51;;;;;;;1.67;0.90;;;23.50;38.50;;;;;;5087280;28;20078;-58
2021/05/01 03:27:17;;;;;;;1.60;0.90;;;23.50;38.50;;;;;;5088203;28;20035;-54
2021/05/01 03:29:42;;;;;;;1.38;0.80;;;23.40;38.50;;;;;;5089032;28;20031;-61
2021/05/01 03:32:08;;;;;;;1.50;1.10;;;23.40;38.50;;;;;;5088449;28;20040;-58
2021/05/01 03:34:34;;;;;;;1.48;0.90;;;23.40;38.50;;;;;;5088674;28;20119;-62
2021/05/01 03:36:59;;;;;;;0.85;0.70;;;23.40;38.50;;;;;;5089055;28;20020;-58
2021/05/01 03:39:25;;;;;;;1.20;0.68;;;23.40;38.60;;;;;;5088696;28;20032;-54
2021/05/01 03:41:51;;;;;;;1.02;0.75;;;23.40;38.50;;;;;;5090651;28;20103;-56
2021/05/01 03:44:17;;;;;;;1.88;1.00;;;23.40;38.50;;;;;;5088927;28;20040;-55
2021/05/01 03:46:42;;;;;;;1.05;0.80;;;23.40;38.60;;;;;;5089992;28;20036;-59
2021/05/01 03:49:08;;;;;;;1.63;0.95;;;23.30;38.50;;;;;;5088998;28;20043;-58
2021/05/01 03:51:34;;;;;;;0.93;0.77;;;23.30;38.50;;;;;;5087339;28;20031;-59
2021/05/01 03:53:59;;;;;;;1.42;0.98;;;23.30;38.50;;;;;;5088419;28;20043;-56
2021/05/01 03:56:25;;;;;;;1.58;0.98;;;23.30;38.60;;;;;;5074846;28;20107;-54
2021/05/01 03:58:51;;;;;;;1.70;0.90;;;23.30;38.60;;;;;;5085387;28;20142;-59
2021/05/01 04:01:17;;;;;;;2.33;1.00;;;23.20;38.50;;;;;;5075317;28;20040;-55
2021/05/01 04:03:42;;;;;;;1.77;0.90;;;23.20;38.60;;;;;;5088105;28;20474;-57
2021/05/01 04:06:08;;;;;;;1.70;0.80;;;23.20;38.50;;;;;;5078381;28;20028;-54
2021/05/01 04:08:34;;;;;;;1.10;0.80;;;23.20;38.60;;;;;;5067899;28;20028;-56
2021/05/01 04:10:59;;;;;;;2.20;0.75;;;23.20;38.50;;;;;;5067105;28;20032;-55
2021/05/01 04:13:26;;;;;;;1.33;0.80;;;23.20;38.60;;;;;;5087253;28;20111;-55
2021/05/01 04:15:52;;;;;;;1.50;0.82;;;23.20;38.60;;;;;;5085387;28;20467;-59
2021/05/01 04:18:17;;;;;;;1.17;0.80;;;23.10;38.60;;;;;;5074544;28;20054;-59
2021/05/01 04:20:44;;;;;;;1.30;0.85;;;23.10;38.50;;;;;;5087155;28;20054;-54
2021/05/01 04:23:09;;;;;;;1.83;0.80;;;23.10;38.60;;;;;;5086376;28;20062;-56
2021/05/01 04:25:36;;;;;;;2.05;0.80;;;23.10;38.60;;;;;;5085206;28;20039;-57
2021/05/01 04:28:02;;;;;;;2.33;0.80;;;23.10;38.60;;;;;;5086850;28;20058;-55
2021/05/01 04:30:28;;;;;;;1.23;0.77;;;23.10;38.60;;;;;;5087205;28;20502;-56
2021/05/01 04:32:53;;;;;;;1.00;0.70;;;23.10;38.60;;;;;;5086452;28;20020;-59
2021/05/01 04:35:19;;;;;;;0.80;0.60;;;23.10;38.60;;;;;;5087528;28;20016;-55
2021/05/01 04:37:45;;;;;;;0.77;0.70;;;23.10;38.60;;;;;;5087120;28;20131;-53
2021/05/01 04:40:11;;;;;;;1.38;0.85;;;23.10;38.60;;;;;;5075314;28;20024;-54
2021/05/01 04:42:41;;;;;;;0.88;0.68;;;23.00;38.60;;;;;;5082125;28;20028;-58
2021/05/01 04:45:07;;;;;;;1.98;0.63;;;23.00;38.60;;;;;;5084571;28;20028;-58
2021/05/01 04:47:33;;;;;;;1.20;0.75;;;23.00;38.60;;;;;;5072163;28;20035;-58
2021/05/01 04:49:58;;;;;;;1.13;0.70;;;23.00;38.60;;;;;;5086227;28;20024;-58
2021/05/01 04:52:24;;;;;;;0.70;0.60;;;23.00;38.60;;;;;;5086976;28;20435;-59
2021/05/01 04:54:52;;;;;;;0.93;0.77;;;23.00;38.60;;;;;;5071807;28;20032;-58
2021/05/01 04:57:17;;;;;;;1.58;0.88;;;23.00;38.60;;;;;;5066900;28;20054;-58
2021/05/01 04:59:43;;;;;;;1.63;0.80;;;22.90;38.60;;;;;;5086676;28;20500;-54
2021/05/01 05:02:09;;;;;;;0.90;0.70;;;22.90;38.60;;;;;;5085774;28;20048;-60
2021/05/01 05:04:34;;;;;;;1.50;0.77;;;22.90;38.60;;;;;;5083908;28;20119;-57
2021/05/01 05:07:00;;;;;;;1.70;1.00;;;22.90;38.60;;;;;;5084836;28;20032;-56
2021/05/01 05:09:25;;;;;;;1.75;1.00;;;22.90;38.70;;;;;;5083599;28;20043;-49
2021/05/01 05:11:51;;;;;;;1.02;0.70;;;22.90;38.70;;;;;;5085967;28;20028;-53
2021/05/01 05:14:17;;;;;;;1.42;0.80;;;22.90;38.60;;;;;;5086532;28;20131;-50
2021/05/01 05:16:42;;;;;;;1.15;0.80;;;22.90;38.60;;;;;;5080303;28;20028;-52
2021/05/01 05:19:08;;;;;;;1.13;0.70;;;22.80;38.60;;;;;;5086663;28;20432;-59
2021/05/01 05:21:36;;;;;;;0.95;0.70;;;22.80;38.60;;;;;;5085639;28;20032;-56
2021/05/01 05:24:06;;;;;;;0.90;0.70;;;22.80;38.60;;;;;;5083556;28;20042;-56
2021/05/01 05:26:31;;;;;;;1.38;0.75;;;22.80;38.60;;;;;;5085144;28;20370;-53
2021/05/01 05:28:57;;;;;;;0.90;0.73;;;22.80;38.60;;;;;;5087410;28;20040;-55
2021/05/01 05:31:22;;;;;;;1.13;0.73;;;22.80;38.60;;;;;;5085592;28;20139;-55
2021/05/01 05:33:48;;;;;;;0.93;0.70;;;22.80;39.20;;;;;;5084579;28;20020;-52
2021/05/01 05:36:14;;;;;;;0.85;0.70;;;22.80;38.70;;;;;;5085629;28;20362;-57
2021/05/01 05:38:39;;;;;;;0.98;0.70;;;22.80;38.60;;;;;;5085638;28;20089;-54
2021/05/01 05:41:05;;;;;;;0.80;0.70;;;22.80;38.70;;;;;;5084555;28;20487;-55
2021/05/01 05:43:33;;;;;;;1.00;0.70;;;22.70;38.70;;;;;;5077031;28;20067;-53
2021/05/01 05:46:10;;;;;;;0.93;0.70;;;22.70;38.60;;;;;;5078275;28;20044;-55
2021/05/01 05:48:36;;;;;;;1.20;0.70;;;22.70;38.70;;;;;;5078728;28;20032;-56
2021/05/01 05:51:02;;;;;;;1.33;0.80;;;22.70;38.60;;;;;;5085582;28;20113;-58
2021/05/01 05:53:28;;;;;;;1.05;0.70;;;22.70;38.70;;;;;;5083258;28;20031;-54
2021/05/01 05:55:53;;;;;;;1.42;0.73;;;22.70;38.70;;;;;;5080757;28;20032;-57
2021/05/01 05:58:19;;;;;;;1.15;0.80;;;22.70;38.60;;;;;;5077696;28;20066;-54
2021/05/01 06:00:45;;;;;;;0.60;0.60;;;22.70;38.60;;;;;;5086223;28;20380;-53
2021/05/01 06:03:11;;;;;;;0.63;0.60;;;22.70;38.70;;;;;;5082156;28;20062;-53
2021/05/01 06:05:43;;;;;;;1.40;0.70;;;22.70;38.70;;;;;;5085648;28;20043;-57
2021/05/01 06:08:10;;;;;;;0.80;0.60;;;22.60;38.70;;;;;;5087205;28;20143;-57
2021/05/01 06:10:37;;;;;;;1.02;0.80;;;22.70;39.20;;;;;;5085681;28;20067;-54
2021/05/01 06:13:04;;;;;;;1.05;0.70;;;22.60;38.70;;;;;;5084369;28;20036;-59
2021/05/01 06:15:30;;;;;;;1.10;0.73;;;22.60;38.70;;;;;;5086237;28;20028;-52
2021/05/01 06:18:00;;;;;;;0.88;0.60;;;22.60;38.70;;;;;;5075011;28;20198;-55
2021/05/01 06:20:28;;;;;;;1.08;0.80;;;22.60;38.70;;;;;;5085769;28;20059;-57
2021/05/01 06:22:54;;;;;;;0.70;0.57;;;22.60;38.70;;;;;;5081739;28;20557;-55
2021/05/01 06:25:20;;;;;;;1.08;0.70;;;22.60;38.70;;;;;;5081906;28;20035;-60
2021/05/01 06:27:50;;;;;;;1.23;0.70;;;22.60;38.70;;;;;;5080319;28;20135;-51
2021/05/01 06:30:16;;;;;;;1.40;0.70;;;22.60;38.70;;;;;;5085604;28;20174;-55
2021/05/01 06:32:42;;;;;;;1.58;0.90;;;22.60;38.70;;;;;;5086421;28;20024;-52
2021/05/01 06:35:08;;;;;;;1.00;0.68;;;22.60;38.70;;;;;;5086799;28;20032;-57
2021/05/01 06:37:36;;;;;;;1.35;0.70;;;22.50;38.70;;;;;;5085633;28;20043;-55
2021/05/01 06:40:07;;;;;;;1.00;0.70;;;22.50;38.70;;;;;;5085536;28;20036;-56
2021/05/01 06:42:36;;;;;;;1.45;0.70;;;22.50;38.70;;;;;;5083903;28;20036;-53
2021/05/01 06:45:12;;;;;;;1.95;0.70;;;22.50;38.70;;;;;;5084682;28;20805;-56
2021/05/01 06:47:48;;;;;;;1.55;0.80;;;22.50;38.70;;;;;;5083577;28;20036;-57
2021/05/01 06:50:14;;;;;;;0.88;0.73;;;22.50;38.70;;;;;;5071944;28;20063;-60
2021/05/01 06:52:46;;;;;;;0.73;0.63;;;22.50;38.70;;;;;;5085869;28;20100;-60
2021/05/01 06:55:17;;;;;;;1.17;0.80;;;22.50;38.70;;;;;;5083369;28;20042;-55
2021/05/01 06:57:48;;;;;;;1.13;0.80;;;22.50;38.80;;;;;;5081993;28;20039;-55
2021/05/01 07:00:15;;;;;;;0.95;0.70;;;22.50;38.80;;;;;;5084274;28;20035;-56
2021/05/01 07:02:44;;;;;;;0.77;0.65;;;22.50;38.80;;;;;;5080434;28;20032;-59
2021/05/01 07:05:11;;;;;;;;;;;22.50;38.80;;;;;;5068935;28;20016;-56
2021/05/01 07:07:37;;;;;;;0.82;0.60;;;22.50;38.80;;;;;;5084067;28;19911;-52
2021/05/01 07:10:05;;;;;;;0.80;0.60;;;22.50;38.80;;;;;;5085180;28;20109;-57
2021/05/01 07:12:31;;;;;;;0.80;0.70;;;22.50;38.90;;;;;;5084154;28;20043;-52
2021/05/01 07:15:01;;;;;;;1.23;0.70;;;22.40;38.80;;;;;;5081070;28;20459;-59
2021/05/01 07:17:27;;;;;;;1.02;0.70;;;22.40;39.40;;;;;;5085506;28;20020;-52
2021/05/01 07:19:53;;;;;;;1.52;0.73;;;22.40;38.90;;;;;;5086672;28;20035;-53
2021/05/01 07:22:18;;;;;;;1.65;0.85;;;22.40;38.90;;;;;;5084238;28;20036;-54
2021/05/01 07:24:44;;;;;;;1.10;0.70;;;22.40;38.90;;;;;;5083818;28;20039;-55
2021/05/01 07:27:11;;;;;;;1.08;0.70;;;22.40;38.90;;;;;;5085725;28;20103;-56
2021/05/01 07:29:39;;;;;;;1.00;0.80;;;22.40;38.90;;;;;;5086516;28;20039;-56
2021/05/01 07:32:07;;;;;;;1.63;0.77;;;22.40;39.00;;;;;;5085557;28;20024;-55
2021/05/01 07:34:34;;;;;;;1.50;0.70;;;22.40;39.00;;;;;;5085485;28;20050;-55
2021/05/01 07:37:06;;;;;;;1.98;1.02;;;22.40;39.00;;;;;;5079739;28;20036;-57
2021/05/01 07:39:32;;;;;;;0.90;0.70;;;22.40;39.00;;;;;;5083629;28;20351;-55
2021/05/01 07:42:00;;;;;;;0.82;0.60;;;22.40;39.00;;;;;;5083416;28;20122;-57
2021/05/01 07:44:30;;;;;;;1.70;0.80;;;22.40;39.00;;;;;;5082754;28;20055;-56
2021/05/01 07:47:00;;;;;;;1.85;0.70;;;22.30;39.00;;;;;;5078691;28;20457;-58
2021/05/01 07:49:26;;;;;;;1.55;0.85;;;22.30;39.00;;;;;;5080760;28;20131;-58
2021/05/01 07:51:53;;;;;;;1.25;0.70;;;22.30;39.00;;;;;;5087260;28;20042;-57
2021/05/01 07:54:19;;;;;;;1.42;0.70;;;22.40;39.10;;;;;;5084178;28;20032;-53
2021/05/01 07:56:45;;;;;;;1.05;0.70;;;22.30;39.00;;;;;;5077344;28;20016;-53
2021/05/01 07:59:10;;;;;;;2.53;0.70;;;22.30;39.00;;;;;;5084421;28;20097;-53
2021/05/01 08:01:36;;;;;;;2.58;1.02;;;22.30;39.10;;;;;;5077197;28;20044;-56
2021/05/01 08:04:02;;;;;;;1.67;0.73;;;22.30;39.10;;;;;;5088604;28;20455;-57
2021/05/01 08:06:28;;;;;;;1.77;0.80;;;22.30;39.10;;;;;;5078773;28;20135;-57
2021/05/01 08:08:55;;;;;;;1.27;0.70;;;22.30;39.10;;;;;;5088579;28;20151;-57
2021/05/01 08:11:21;;;;;;;1.60;0.93;;;22.30;39.10;;;;;;5084798;28;20375;-56
2021/05/01 08:13:47;;;;;;;1.10;0.70;;;22.30;39.10;;;;;;5083899;28;20138;-56
2021/05/01 08:16:14;;;;;;;1.05;0.68;;;22.30;39.10;;;;;;5087889;28;20099;-53
2021/05/01 08:18:40;;;;;;;1.10;0.70;;;22.30;39.10;;;;;;5082262;28;20436;-56
2021/05/01 08:21:05;;;;;;;1.05;0.70;;;22.30;39.10;;;;;;5086262;28;20051;-57
2021/05/01 08:23:33;;;;;;;1.05;0.73;;;22.30;39.10;;;;;;5083872;28;20445;-59
2021/05/01 08:26:03;;;;;;;1.05;0.80;;;22.30;39.10;;;;;;5080841;28;20105;-59
2021/05/01 08:28:28;;;;;;;1.50;0.80;;;22.30;39.10;;;;;;5083601;28;20047;-56
2021/05/01 08:30:54;;;;;;;1.73;0.70;;;22.30;39.10;;;;;;5076942;28;20420;-56
2021/05/01 08:33:20;;;;;;;1.73;0.77;;;22.30;39.10;;;;;;5080263;28;20028;-58
2021/05/01 08:35:46;;;;;;;1.58;0.90;;;22.20;39.10;;;;;;5085694;28;20035;-55
2021/05/01 08:38:12;;;;;;;1.20;0.70;;;22.30;39.10;;;;;;5083198;28;20329;-58
2021/05/01 08:40:38;;;;;;;1.40;0.80;;;22.20;39.10;;;;;;5085363;28;20451;-57
2021/05/01 08:43:03;;;;;;;1.73;0.75;;;22.30;39.20;;;;;;5081323;28;20032;-57
2021/05/01 08:45:32;;;;;;;1.55;1.08;;;22.30;39.20;;;;;;5074636;28;20036;-58
2021/05/01 08:48:00;;;;;;;1.30;0.93;;;22.20;39.20;;;;;;5072354;28;20032;-59
2021/05/01 08:50:25;;;;;;;2.10;1.00;;;22.20;39.30;;;;;;5072677;28;20113;-62
2021/05/01 08:52:52;;;;;;;1.70;0.95;;;22.20;39.40;;;;;;5074790;28;20103;-57
2021/05/01 08:55:17;;;;;;;1.48;0.80;;;22.30;39.40;;;;;;5079593;28;20067;-59
2021/05/01 08:57:43;;;;;;;2.58;0.80;;;22.30;39.40;;;;;;5071450;28;20028;-57
2021/05/01 09:00:09;;;;;;;2.67;0.85;;;22.30;39.40;;;;;;5084783;28;20113;-59
2021/05/01 09:02:36;;;;;;;1.52;0.85;;;22.30;39.40;;;;;;5065742;28;20029;-55
2021/05/01 09:05:03;;;;;;;2.80;0.80;;;22.30;39.40;;;;;;5059788;28;20028;-55
2021/05/01 09:07:29;;;;;;;2.15;0.90;;;22.30;39.50;;;;;;5060982;28;20275;-55
2021/05/01 09:09:58;;;;;;;1.83;0.80;;;22.30;39.50;;;;;;5061229;28;20090;-54
2021/05/01 09:12:52;;;;;;;1.40;0.70;;;22.30;39.60;;;;;;5066032;28;20100;-54
2021/05/01 09:15:22;;;;;;;2.97;0.90;;;22.30;39.60;;;;;;5047825;28;20074;-58
2021/05/01 09:18:00;;;;;;;1.73;0.90;;;22.20;39.50;;;;;;5065743;28;20058;-57
2021/05/01 09:20:26;;;;;;;2.42;0.90;;;22.30;39.60;;;;;;5065835;28;20071;-60
2021/05/01 09:23:00;;;;;;;2.63;1.10;;;22.30;39.60;;;;;;5066107;28;20477;-58
2021/05/01 09:25:32;;;;;;;2.85;0.90;;;22.30;39.60;;;;;;5063979;28;20107;-60
2021/05/01 09:28:17;;;;;;;3.10;1.00;;;22.30;39.70;;;;;;5064900;28;20190;-58
2021/05/01 09:31:01;;;;;;;3.70;1.17;;;22.30;39.70;;;;;;5058643;28;20531;-60
2021/05/01 09:33:29;;;;;;;2.22;1.10;;;22.30;39.70;;;;;;5084023;28;20054;-61
2021/05/01 09:36:08;;;;;;;4.43;1.40;;;22.30;39.70;;;;;;5086388;28;20046;-58
2021/05/01 09:38:41;;;;;;;3.97;1.25;;;22.30;39.70;;;;;;5085798;28;20044;-51
2021/05/01 09:41:14;;;;;;;4.85;1.30;;;22.30;39.80;;;;;;5082154;28;20050;-59
2021/05/01 09:44:04;;;;;;;3.78;1.10;;;22.30;39.80;;;;;;5084814;28;20408;-56
2021/05/01 09:46:52;;;;;;;2.90;1.10;;;22.30;39.90;;;;;;5070942;28;20090;-58
2021/05/01 09:49:46;;;;;;;2.97;1.48;;;22.30;39.90;;;;;;5079059;28;20270;-57
2021/05/01 09:52:15;;;;;;;3.15;1.30;;;22.30;39.90;;;;;;5078569;28;20044;-59
2021/05/01 09:54:42;;;;;;;3.37;1.10;;;22.30;39.90;;;;;;5084637;28;20024;-58
2021/05/01 09:57:09;;;;;;;4.57;1.20;;;22.30;39.90;;;;;;5085332;28;20285;-54
2021/05/01 09:59:51;;;;;;;3.05;1.30;;;22.30;40.00;;;;;;5086588;28;20395;-58
2021/05/01 10:02:17;;;;;;;5.05;1.50;;;22.30;40.00;;;;;;5081226;28;20048;-60
2021/05/01 10:05:04;;;;;;;5.90;1.95;;;22.30;40.10;;;;;;5081983;28;20062;-58
2021/05/01 10:07:31;;;;;;;6.25;1.80;;;22.30;40.30;;;;;;5073148;28;20436;-58
2021/05/01 10:09:58;;;;;;;6.07;1.80;;;22.30;40.30;;;;;;5079558;28;20071;-55
2021/05/01 10:12:37;;;;;;;5.53;1.92;;;22.30;40.40;;;;;;5084475;28;20104;-61
2021/05/01 10:15:16;;;;;;;5.38;1.88;;;22.30;40.50;;;;;;5076665;28;20020;-58
2021/05/01 10:17:44;;;;;;;5.38;1.92;;;22.30;40.60;;;;;;5085770;28;20062;-60
2021/05/01 10:20:10;;;;;;;5.20;1.95;;;22.30;40.70;;;;;;5074121;28;20200;-59
2021/05/01 10:22:42;;;;;;;5.68;2.15;;;22.30;40.70;;;;;;5078719;28;20055;-59
2021/05/01 10:25:34;;;;;;;6.70;2.00;;;22.30;40.80;;;;;;5078237;28;20024;-57
2021/05/01 10:28:06;;;;;;;5.25;2.10;;;22.30;41.00;;;;;;5080273;28;20390;-56
2021/05/01 10:30:36;;;;;;;5.75;2.10;;;22.30;41.10;;;;;;5082204;28;20036;-60
2021/05/01 10:33:15;;;;;;;7.20;2.60;;;22.30;41.20;;;;;;5086795;28;20074;-55
2021/05/01 10:36:08;;;;;;;6.68;2.10;;;22.30;41.40;;;;;;5085364;28;20028;-54
2021/05/01 10:38:34;;;;;;;6.13;1.92;;;22.30;41.50;;;;;;5066118;28;20364;-58
2021/05/01 10:41:02;;;;;;;6.45;2.15;;;22.30;41.60;;;;;;5081865;28;20122;-57
2021/05/01 10:43:31;;;;;;;5.20;1.90;;;22.30;41.60;;;;;;5078814;28;20035;-61
2021/05/01 10:46:10;;;;;;;6.03;2.10;;;22.30;41.70;;;;;;5081970;28;20036;-60
2021/05/01 10:48:45;;;;;;;;;;;22.30;41.80;;;;;;5080332;28;20340;-58
2021/05/01 10:51:11;;;;;;;4.03;1.80;;;22.30;42.00;;;;;;5080398;28;19918;-60
2021/05/01 10:53:38;;;;;;;5.32;2.08;;;22.30;41.80;;;;;;5078776;28;20103;-59
2021/05/01 10:56:05;;;;;;;8.13;2.40;;;22.30;41.80;;;;;;5074382;28;20106;-62
2021/05/01 10:58:43;;;;;;;6.25;2.10;;;22.30;41.80;;;;;;5079900;28;20028;-62
2021/05/01 11:01:14;;;;;;;5.40;1.80;;;22.40;41.80;;;;;;5074722;28;20593;-61
2021/05/01 11:03:46;;;;;;;5.82;2.20;;;22.30;41.70;;;;;;5063800;28;20479;-60
2021/05/01 11:06:23;;;;;;;7.97;2.03;;;22.40;41.80;;;;;;5081418;28;20603;-59
2021/05/01 11:09:07;;;;;;;3.65;1.65;;;22.30;41.80;;;;;;5080772;28;20043;-59
2021/05/01 11:11:41;;;;;;;5.10;1.90;;;22.30;41.80;;;;;;5072621;28;20079;-59
2021/05/01 11:14:26;;;;;;;4.32;2.03;;;22.30;41.80;;;;;;5080319;28;20139;-60
2021/05/01 11:17:13;;;;;;;6.93;2.10;;;22.30;41.90;;;;;;5081195;28;20079;-60
2021/05/01 11:19:44;;;;;;;4.22;1.58;;;22.30;41.90;;;;;;5063162;28;20031;-59
2021/05/01 11:22:14;;;;;;;5.07;1.65;;;22.40;41.90;;;;;;5072861;28;20060;-59
2021/05/01 11:24:42;;;;;;;3.53;1.48;;;22.40;41.80;;;;;;5082287;28;20052;-60
2021/05/01 11:27:08;;;;;;;3.78;2.05;;;22.40;41.80;;;;;;5077008;28;20093;-57
2021/05/01 11:29:34;;;;;;;3.70;1.55;;;22.30;41.80;;;;;;5079169;28;20115;-59
2021/05/01 11:32:01;;;;;;;5.38;1.60;;;22.40;41.80;;;;;;5083781;28;20069;-59
2021/05/01 11:34:31;;;;;;;4.95;1.80;;;22.40;41.80;;;;;;5085655;28;20050;-59
2021/05/01 11:37:00;;;;;;;4.68;1.65;;;22.40;41.70;;;;;;5069263;28;20394;-61
2021/05/01 11:39:28;;;;;;;4.00;1.52;;;22.40;41.60;;;;;;5080095;28;20521;-60
2021/05/01 11:41:56;;;;;;;3.75;1.48;;;22.30;41.50;;;;;;5084816;28;20032;-60
2021/05/01 11:44:26;;;;;;;3.22;1.50;;;22.30;41.50;;;;;;5075650;28;20032;-58
2021/05/01 11:46:57;;;;;;;4.25;1.42;;;22.40;41.50;;;;;;5056422;28;20527;-60
2021/05/01 11:49:25;;;;;;;4.95;1.75;;;22.30;41.50;;;;;;5064231;28;20032;-60
2021/05/01 11:52:10;;;;;;;5.60;1.63;;;22.40;41.70;;;;;;5072761;28;20318;-61
2021/05/01 11:55:00;;;;;;;6.55;2.30;;;22.40;41.70;;;;;;5053071;28;20074;-62
2021/05/01 11:57:48;;;;;;;5.47;2.20;;;22.40;42.00;;;;;;5061518;28;20028;-61
2021/05/01 12:00:34;;;;;;;5.00;1.80;;;22.50;42.30;;;;;;5071700;28;20123;-59
2021/05/01 12:03:23;;;;;;;3.45;1.63;;;22.60;42.20;;;;;;5062218;28;20028;-60
2021/05/01 12:05:59;;;;;;;6.65;2.00;;;22.70;42.10;;;;;;5047826;28;20349;-62
2021/05/01 12:08:27;;;;;;;4.30;1.83;;;22.80;41.90;;;;;;5062692;28;20036;-57
2021/05/01 12:10:57;;;;;;;7.43;2.15;;;22.90;41.70;;;;;;5065340;28;20040;-60
2021/05/01 12:13:30;;;;;;;5.18;2.15;;;23.00;41.60;;;;;;5061380;28;20100;-56
2021/05/01 12:15:58;;;;;;;6.07;2.15;;;23.10;41.40;;;;;;5057122;28;20028;-60
2021/05/01 12:18:43;;;;;;;5.25;2.00;;;23.20;41.30;;;;;;5076941;28;20047;-56
2021/05/01 12:21:17;;;;;;;5.18;2.00;;;23.30;41.00;;;;;;5071800;28;20033;-59
2021/05/01 12:23:48;;;;;;;6.22;2.00;;;23.30;40.90;;;;;;5068635;28;20105;-61
2021/05/01 12:26:32;;;;;;;5.40;1.80;;;23.40;40.80;;;;;;5083128;28;20032;-59
2021/05/01 12:29:26;;;;;;;5.18;1.80;;;23.50;40.50;;;;;;5069819;28;20067;-58
2021/05/01 12:31:52;;;;;;;4.43;1.73;;;23.50;40.50;;;;;;5068710;28;20096;-60
2021/05/01 12:34:19;;;;;;;5.47;2.00;;;23.40;40.40;;;;;;5074564;28;20412;-56
2021/05/01 12:36:50;;;;;;;4.63;1.70;;;23.40;40.50;;;;;;5055145;28;20058;-60
2021/05/01 12:39:17;;;;;;;4.40;1.98;;;23.40;40.60;;;;;;5066647;28;20168;-58
2021/05/01 12:41:45;;;;;;;4.65;1.58;;;23.40;40.60;;;;;;5059699;28;20032;-58
2021/05/01 12:44:31;;;;;;;3.80;1.80;;;23.40;40.70;;;;;;5057172;28;20330;-56
2021/05/01 12:46:57;;;;;;;3.83;1.60;;;23.40;40.70;;;;;;5047569;28;20075;-56
2021/05/01 12:49:24;;;;;;;5.60;1.65;;;23.40;40.70;;;;;;5030555;28;20459;-57
2021/05/01 12:51:56;;;;;;;5.38;1.63;;;23.40;40.70;;;;;;5058001;28;20427;-59
2021/05/01 12:54:21;;;;;;;4.65;1.80;;;23.40;40.70;;;;;;5073476;28;20096;-60
2021/05/01 12:56:51;;;;;;;4.85;1.70;;;23.40;40.70;;;;;;5065967;28;20118;-58